Impacts METAR Board
IDs:

KDFW - Dallas-Ft Worth Intl, TX, US

Updated at: 1500 UTC 16 Feb 2019
Potential Impact None Slight Moderate High
Time 16/03Z 16/04Z 16/05Z 16/06Z 16/07Z 16/08Z 16/09Z 16/10Z 16/11Z 16/12Z 16/13Z 16/14Z 16/15Z
Temp42 39 38 36 35 34 34 35 34 34 33 33 33
Dewpt32 31 30 29 28 28 28 29 30 30 31 31 31
Altim29.90 29.92 29.93 29.90 29.93 29.95 29.90 29.92 29.88 29.88 29.91 29.92 29.94
VIS10 10 10 10 10 10 10 10 10 10 7 2 2.5
CIG250 250 18 17 15 15 15 13 10 9 6 6 5
CoverBKNBKNBKNBKNOVCOVCOVCOVCOVCOVCOVCOVCOVC
FltCatVFRVFRMVFRMVFRMVFRMVFRMVFRMVFRMVFRIFRIFRIFRIFR
WX-----------------------DZ BRBR
WDir350350350202036036035036020102010
WSpd16 16 13 14 10 13 12 11 12 9 12 10 3
WGst-- -- -- -- -- -- -- -- -- -- -- -- --
Raw hourly METARs
KDFW 160253Z 35016KT 10SM BKN250 06/00 A2990 RMK AO2 SLP122 T00560000 51037
KDFW 160353Z 35016KT 10SM FEW017 BKN250 04/M01 A2992 RMK AO2 SLP131 T00391006
KDFW 160453Z 35013KT 10SM BKN018 BKN250 03/M01 A2993 RMK AO2 SLP133 T00331011
KDFW 160601Z 02014KT 10SM BKN017 BKN250 02/M02 A2990 RMK AO2 PRESFR T00221017
KDFW 160653Z 02010KT 10SM OVC015 02/M02 A2993 RMK AO2 SLP132 T00171022
KDFW 160753Z 36013KT 10SM OVC015 01/M02 A2995 RMK AO2 SLP139 T00111022
KDFW 160853Z 36012KT 10SM OVC015 01/M02 A2990 RMK AO2 SLP123 T00111022 58007
KDFW 160953Z 35011KT 10SM OVC013 02/M02 A2992 RMK AO2 SLP129 T00171017
KDFW 161053Z 36012KT 10SM OVC010 01/M01 A2988 RMK AO2 PRESFR SLP116 T00111011
KDFW 161153Z 02009KT 10SM OVC009 01/M01 A2988 RMK AO2 SLP118 T00111011 10022 20011 58005
KDFW 161253Z 01012KT 7SM OVC006 01/M01 A2991 RMK AO2 SLP127 T00061006
KDFW 161353Z 02010KT 2SM -DZ BR OVC006 01/M01 A2992 RMK AO2 SFC VIS 3 DZB51 SLP132 P0000 T00061006
KDFW 161453Z 01003KT 2 1/2SM BR OVC005 01/M01 A2994 RMK AO2 SFC VIS 5 DZE43 SLP140 P0000 60000 T00061006 51019



Page loaded:  15:23 UTC  |   07:23 AM Pacific  |   08:23 AM Mountain  |   09:23 AM Central  |   10:23 AM Eastern

 

ADVISORIES

FORECASTS

FORECASTS

OBSERVATIONS

USER TOOLS

ABOUT US